KCAD

Wexford County Airport

Cadillac, Michigan, USA
METAR KCAD 171415Z AUTO 33015G21KT 10SM OVC023 M01/M07 A3005 RMK AO2 T10181076
Observed Flight Rules
Dec-17 @ 14:15 UTC (14 minutes ago) Marginal Visual Flight Rules
Wind Visibility Clouds
330° at 15 knots
 Gusting to 21 knots
10 miles
  • Overcast at 2,300' AGL
Temperatures Readings
Current -2°C / 28°F
Dewpoint -8°C / 18°F
Humidity 64%
Altimeter 30.05" Hg
Pressure 1018 hPa
Elevation 398
METAR KCAD 171415Z AUTO 33015G21KT 10SM OVC023 M01/M07 A3005 RMK AO2 T10181076
Observed Flight Rules
Dec-17 @ 14:15 UTC
(14 minutes ago)
MVFR
Wind Visibility
330° at 15 knots
 Gusting to 21 knots
10 miles
Clouds
  • Overcast at 2,300' AGL
Temperature Dewpoint
-2°C / 28°F -8°C / 18°F
Humidity Altimeter Pressure
64% 30.05" Hg 1018 hPa